Página principal
METAR-TAF:

METAR-TAF

Aeroportos :

Curaçao, Antilhas Neerlandesas

Aeroporto Internacional Hato

latitude: 12-12N, longitude: 068-58W, altura: 9 m

Observação actual do tempo

O boletim foi feito há 1 hora e 0 minutos, às 08:00 UTC
Vento 12 kt de este
Temperatura 26°C
Humidade 84%
Pressão 1013 hPa
Visibilidade 10 km ou mais
Poucas nuvensa uma altura de 1800 ft

METAR: TNCC 200800Z 10012KT 9999 FEW018 26/23 Q1013 NOSIG

Hora: 05:00 (09:00 UTC)

Previsão

O boletim foi feito há 5 horas e 0 minutos, às 04:00 UTC
Previsão válida de 20 às 06 UTC a 21 às 06 UTC
Vento 13 kt de este
Visibilidade 10 km ou mais
Nuvens dispersasa uma altura de 2000 ft

TAF: TNCC 200400Z 2006/2106 10013KT 9999 SCT020

Observações e previsões do tempo de mais de 4000 aeroportos (mensagens METAR e TAF).

As estações disponíveis são os pontos amarelos e vermelhos sobre o mapa.

Mova o rato sobre o mapa para ver o nome da estação.

Depois clique no ponto para visualizar as observações e previsões meteorológicas.

Para alterar o mapa : clique nos botões verdes com uma cruz preta para aumentar o zoom; no botão verde com uma pitada de zoom; ou nas setas verdes para mapas adjacentes.


METAR-TAF: